sensor_id;sensor_type;location;lat;lon;timestamp;temperature;humidity
22112;DHT22;11222;50.872;4.312;2022-12-18T00:01:34;-1.40;99.90
22112;DHT22;11222;50.872;4.312;2022-12-18T00:04:02;-1.30;99.90
22112;DHT22;11222;50.872;4.312;2022-12-18T00:06:29;-1.30;99.90
22112;DHT22;11222;50.872;4.312;2022-12-18T00:08:57;-1.20;99.90
22112;DHT22;11222;50.872;4.312;2022-12-18T00:11:25;-1.30;99.90
22112;DHT22;11222;50.872;4.312;2022-12-18T00:13:53;-1.30;99.90
22112;DHT22;11222;50.872;4.312;2022-12-18T00:16:22;-1.40;99.90
22112;DHT22;11222;50.872;4.312;2022-12-18T00:18:49;-1.60;99.90
22112;DHT22;11222;50.872;4.312;2022-12-18T00:21:16;-1.70;99.90
22112;DHT22;11222;50.872;4.312;2022-12-18T00:23:43;-1.90;99.90
22112;DHT22;11222;50.872;4.312;2022-12-18T00:26:16;-2.00;99.90
22112;DHT22;11222;50.872;4.312;2022-12-18T00:28:43;-1.90;99.90
22112;DHT22;11222;50.872;4.312;2022-12-18T00:31:14;-2.00;99.90
22112;DHT22;11222;50.872;4.312;2022-12-18T00:33:41;-2.00;99.90
22112;DHT22;11222;50.872;4.312;2022-12-18T00:36:30;-2.00;99.90
22112;DHT22;11222;50.872;4.312;2022-12-18T00:38:56;-2.00;99.90
22112;DHT22;11222;50.872;4.312;2022-12-18T00:41:22;-2.10;99.90
22112;DHT22;11222;50.872;4.312;2022-12-18T00:44:07;-2.10;99.90
22112;DHT22;11222;50.872;4.312;2022-12-18T00:46:34;-2.10;99.90
22112;DHT22;11222;50.872;4.312;2022-12-18T00:49:00;-1.80;99.90
22112;DHT22;11222;50.872;4.312;2022-12-18T00:51:26;-1.70;99.90
22112;DHT22;11222;50.872;4.312;2022-12-18T00:53:52;-1.40;99.90
22112;DHT22;11222;50.872;4.312;2022-12-18T00:56:18;-1.20;99.90
22112;DHT22;11222;50.872;4.312;2022-12-18T00:58:43;-1.20;99.90
22112;DHT22;11222;50.872;4.312;2022-12-18T01:01:09;-1.10;99.90
22112;DHT22;11222;50.872;4.312;2022-12-18T01:03:35;-1.10;99.90
22112;DHT22;11222;50.872;4.312;2022-12-18T01:06:11;-1.10;99.90
22112;DHT22;11222;50.872;4.312;2022-12-18T01:08:38;-1.00;99.90
22112;DHT22;11222;50.872;4.312;2022-12-18T01:11:09;-1.00;99.90
22112;DHT22;11222;50.872;4.312;2022-12-18T01:13:35;-1.10;99.90
22112;DHT22;11222;50.872;4.312;2022-12-18T01:16:01;-1.10;99.90
22112;DHT22;11222;50.872;4.312;2022-12-18T01:18:27;-1.10;99.90
22112;DHT22;11222;50.872;4.312;2022-12-18T01:20:53;-1.10;99.90
22112;DHT22;11222;50.872;4.312;2022-12-18T01:23:18;-1.30;99.90
22112;DHT22;11222;50.872;4.312;2022-12-18T01:25:44;-1.40;99.90
22112;DHT22;11222;50.872;4.312;2022-12-18T01:28:10;-1.70;99.90
22112;DHT22;11222;50.872;4.312;2022-12-18T01:30:36;-1.80;99.90
22112;DHT22;11222;50.872;4.312;2022-12-18T01:33:04;-1.80;99.90
22112;DHT22;11222;50.872;4.312;2022-12-18T01:35:30;-1.70;99.90
22112;DHT22;11222;50.872;4.312;2022-12-18T01:37:56;-1.70;99.90
22112;DHT22;11222;50.872;4.312;2022-12-18T01:40:22;-1.70;99.90
22112;DHT22;11222;50.872;4.312;2022-12-18T01:42:54;-1.70;99.90
22112;DHT22;11222;50.872;4.312;2022-12-18T01:48:06;-2.00;99.90
22112;DHT22;11222;50.872;4.312;2022-12-18T01:50:42;-2.10;99.90
22112;DHT22;11222;50.872;4.312;2022-12-18T01:53:15;-2.20;99.90
22112;DHT22;11222;50.872;4.312;2022-12-18T01:56:15;-2.20;99.90
22112;DHT22;11222;50.872;4.312;2022-12-18T01:58:56;-2.20;99.90
22112;DHT22;11222;50.872;4.312;2022-12-18T02:01:24;-2.20;99.90
22112;DHT22;11222;50.872;4.312;2022-12-18T02:03:51;-2.20;99.90
22112;DHT22;11222;50.872;4.312;2022-12-18T02:06:40;-2.20;99.90
22112;DHT22;11222;50.872;4.312;2022-12-18T02:09:07;-2.00;99.90
22112;DHT22;11222;50.872;4.312;2022-12-18T02:12:00;-2.00;99.90
22112;DHT22;11222;50.872;4.312;2022-12-18T02:14:30;-1.80;99.90
22112;DHT22;11222;50.872;4.312;2022-12-18T02:17:54;-1.90;99.90
22112;DHT22;11222;50.872;4.312;2022-12-18T02:27:49;-2.10;99.90
22112;DHT22;11222;50.872;4.312;2022-12-18T02:30:16;-2.20;99.90
22112;DHT22;11222;50.872;4.312;2022-12-18T02:32:46;-2.30;99.90
22112;DHT22;11222;50.872;4.312;2022-12-18T02:35:16;-2.40;99.90
22112;DHT22;11222;50.872;4.312;2022-12-18T02:37:44;-2.50;99.90
22112;DHT22;11222;50.872;4.312;2022-12-18T02:40:11;-2.60;99.90
22112;DHT22;11222;50.872;4.312;2022-12-18T02:42:38;-2.50;99.90
22112;DHT22;11222;50.872;4.312;2022-12-18T02:45:04;-2.50;99.90
22112;DHT22;11222;50.872;4.312;2022-12-18T02:47:34;-2.50;99.90
22112;DHT22;11222;50.872;4.312;2022-12-18T02:58:41;-2.80;99.90
22112;DHT22;11222;50.872;4.312;2022-12-18T03:01:18;-2.80;99.90
22112;DHT22;11222;50.872;4.312;2022-12-18T03:06:33;-2.90;99.90
22112;DHT22;11222;50.872;4.312;2022-12-18T03:09:08;-2.90;99.90
22112;DHT22;11222;50.872;4.312;2022-12-18T03:11:37;-2.90;99.90
22112;DHT22;11222;50.872;4.312;2022-12-18T03:14:24;-3.00;99.90
22112;DHT22;11222;50.872;4.312;2022-12-18T03:16:53;-3.00;99.90
22112;DHT22;11222;50.872;4.312;2022-12-18T03:19:22;-3.00;99.90
22112;DHT22;11222;50.872;4.312;2022-12-18T03:21:54;-3.00;99.90
22112;DHT22;11222;50.872;4.312;2022-12-18T03:24:21;-3.00;99.90
22112;DHT22;11222;50.872;4.312;2022-12-18T03:26:52;-3.00;99.90
22112;DHT22;11222;50.872;4.312;2022-12-18T03:29:22;-2.80;99.90
22112;DHT22;11222;50.872;4.312;2022-12-18T03:31:54;-2.90;99.90
22112;DHT22;11222;50.872;4.312;2022-12-18T03:34:26;-3.00;99.90
22112;DHT22;11222;50.872;4.312;2022-12-18T03:36:54;-3.00;99.90
22112;DHT22;11222;50.872;4.312;2022-12-18T03:39:20;-3.00;99.90
22112;DHT22;11222;50.872;4.312;2022-12-18T03:42:18;-3.00;99.90
22112;DHT22;11222;50.872;4.312;2022-12-18T03:50:37;-3.10;99.90
22112;DHT22;11222;50.872;4.312;2022-12-18T03:53:29;-3.10;99.90
22112;DHT22;11222;50.872;4.312;2022-12-18T03:55:58;-3.10;99.90
22112;DHT22;11222;50.872;4.312;2022-12-18T03:58:26;-3.10;99.90
22112;DHT22;11222;50.872;4.312;2022-12-18T04:00:56;-3.20;99.90
22112;DHT22;11222;50.872;4.312;2022-12-18T04:03:23;-3.10;99.90
22112;DHT22;11222;50.872;4.312;2022-12-18T04:05:51;-3.20;99.90
22112;DHT22;11222;50.872;4.312;2022-12-18T04:08:18;-3.20;99.90
22112;DHT22;11222;50.872;4.312;2022-12-18T04:10:44;-3.20;99.90
22112;DHT22;11222;50.872;4.312;2022-12-18T04:13:10;-3.10;99.90
22112;DHT22;11222;50.872;4.312;2022-12-18T04:15:36;-3.10;99.90
22112;DHT22;11222;50.872;4.312;2022-12-18T04:18:03;-3.10;99.90
22112;DHT22;11222;50.872;4.312;2022-12-18T04:20:29;-3.10;99.90
22112;DHT22;11222;50.872;4.312;2022-12-18T04:22:55;-2.90;99.90
22112;DHT22;11222;50.872;4.312;2022-12-18T04:25:21;-2.80;99.90
22112;DHT22;11222;50.872;4.312;2022-12-18T04:27:46;-2.80;99.90
22112;DHT22;11222;50.872;4.312;2022-12-18T04:30:12;-2.80;99.90
22112;DHT22;11222;50.872;4.312;2022-12-18T04:32:38;-2.70;99.90
22112;DHT22;11222;50.872;4.312;2022-12-18T04:35:04;-2.70;99.90
22112;DHT22;11222;50.872;4.312;2022-12-18T04:37:32;-2.60;99.90
22112;DHT22;11222;50.872;4.312;2022-12-18T04:39:58;-2.80;99.90
22112;DHT22;11222;50.872;4.312;2022-12-18T04:42:23;-2.90;99.90
22112;DHT22;11222;50.872;4.312;2022-12-18T04:44:49;-2.70;99.90
22112;DHT22;11222;50.872;4.312;2022-12-18T04:47:15;-2.60;99.90
22112;DHT22;11222;50.872;4.312;2022-12-18T04:49:40;-2.40;99.90
22112;DHT22;11222;50.872;4.312;2022-12-18T04:52:07;-2.40;99.90
22112;DHT22;11222;50.872;4.312;2022-12-18T04:54:33;-2.50;99.90
22112;DHT22;11222;50.872;4.312;2022-12-18T04:56:59;-2.40;99.90
22112;DHT22;11222;50.872;4.312;2022-12-18T04:59:24;-2.60;99.90
22112;DHT22;11222;50.872;4.312;2022-12-18T05:01:50;-2.70;99.90
22112;DHT22;11222;50.872;4.312;2022-12-18T05:04:16;-2.90;99.90
22112;DHT22;11222;50.872;4.312;2022-12-18T05:06:41;-2.90;99.90
22112;DHT22;11222;50.872;4.312;2022-12-18T05:09:07;-3.10;99.90
22112;DHT22;11222;50.872;4.312;2022-12-18T05:11:33;-3.20;99.90
22112;DHT22;11222;50.872;4.312;2022-12-18T05:14:02;-3.30;99.90
22112;DHT22;11222;50.872;4.312;2022-12-18T05:16:28;-3.30;99.90
22112;DHT22;11222;50.872;4.312;2022-12-18T05:18:53;-3.30;99.90
22112;DHT22;11222;50.872;4.312;2022-12-18T05:21:19;-3.20;99.90
22112;DHT22;11222;50.872;4.312;2022-12-18T05:23:45;-3.20;99.90
22112;DHT22;11222;50.872;4.312;2022-12-18T05:26:15;-3.30;99.90
22112;DHT22;11222;50.872;4.312;2022-12-18T05:28:41;-3.30;99.90
22112;DHT22;11222;50.872;4.312;2022-12-18T05:31:07;-3.20;99.90
22112;DHT22;11222;50.872;4.312;2022-12-18T05:33:34;-3.20;99.90
22112;DHT22;11222;50.872;4.312;2022-12-18T05:36:01;-3.20;99.90
22112;DHT22;11222;50.872;4.312;2022-12-18T05:38:28;-3.30;99.90
22112;DHT22;11222;50.872;4.312;2022-12-18T05:40:54;-3.30;99.90
22112;DHT22;11222;50.872;4.312;2022-12-18T05:43:21;-3.20;99.90
22112;DHT22;11222;50.872;4.312;2022-12-18T05:45:48;-3.20;99.90
22112;DHT22;11222;50.872;4.312;2022-12-18T05:48:15;-3.10;99.90
22112;DHT22;11222;50.872;4.312;2022-12-18T05:50:43;-3.10;99.90
22112;DHT22;11222;50.872;4.312;2022-12-18T05:53:11;-3.10;99.90
22112;DHT22;11222;50.872;4.312;2022-12-18T05:55:39;-3.20;99.90
22112;DHT22;11222;50.872;4.312;2022-12-18T05:58:05;-3.00;99.90
22112;DHT22;11222;50.872;4.312;2022-12-18T06:00:33;-2.80;99.90
22112;DHT22;11222;50.872;4.312;2022-12-18T06:03:00;-2.80;99.90
22112;DHT22;11222;50.872;4.312;2022-12-18T06:05:26;-2.90;99.90
22112;DHT22;11222;50.872;4.312;2022-12-18T06:07:52;-2.90;99.90
22112;DHT22;11222;50.872;4.312;2022-12-18T06:10:18;-3.00;99.90
22112;DHT22;11222;50.872;4.312;2022-12-18T06:12:44;-3.10;99.90
22112;DHT22;11222;50.872;4.312;2022-12-18T06:15:10;-3.10;99.90
22112;DHT22;11222;50.872;4.312;2022-12-18T06:17:36;-3.20;99.90
22112;DHT22;11222;50.872;4.312;2022-12-18T06:20:03;-3.20;99.90
22112;DHT22;11222;50.872;4.312;2022-12-18T06:22:31;-3.10;99.90
22112;DHT22;11222;50.872;4.312;2022-12-18T06:24:57;-3.10;99.90
22112;DHT22;11222;50.872;4.312;2022-12-18T06:27:24;-3.00;99.90
22112;DHT22;11222;50.872;4.312;2022-12-18T06:29:50;-2.90;99.90
22112;DHT22;11222;50.872;4.312;2022-12-18T06:32:16;-2.80;99.90
22112;DHT22;11222;50.872;4.312;2022-12-18T06:34:42;-2.90;99.90
22112;DHT22;11222;50.872;4.312;2022-12-18T06:37:07;-3.00;99.90
22112;DHT22;11222;50.872;4.312;2022-12-18T06:39:33;-3.10;99.90
22112;DHT22;11222;50.872;4.312;2022-12-18T06:41:58;-3.20;99.90
22112;DHT22;11222;50.872;4.312;2022-12-18T06:44:24;-3.20;99.90
22112;DHT22;11222;50.872;4.312;2022-12-18T06:46:50;-3.30;99.90
22112;DHT22;11222;50.872;4.312;2022-12-18T06:49:16;-3.30;99.90
22112;DHT22;11222;50.872;4.312;2022-12-18T06:51:42;-3.30;99.90
22112;DHT22;11222;50.872;4.312;2022-12-18T06:54:08;-3.20;99.90
22112;DHT22;11222;50.872;4.312;2022-12-18T06:56:34;-3.20;99.90
22112;DHT22;11222;50.872;4.312;2022-12-18T06:58:59;-3.10;99.90
22112;DHT22;11222;50.872;4.312;2022-12-18T07:01:25;-3.10;99.90
22112;DHT22;11222;50.872;4.312;2022-12-18T07:03:55;-3.10;99.90
22112;DHT22;11222;50.872;4.312;2022-12-18T07:06:23;-3.10;99.90
22112;DHT22;11222;50.872;4.312;2022-12-18T07:08:50;-3.10;99.90
22112;DHT22;11222;50.872;4.312;2022-12-18T07:11:17;-3.00;99.90
22112;DHT22;11222;50.872;4.312;2022-12-18T07:13:43;-2.90;99.90
22112;DHT22;11222;50.872;4.312;2022-12-18T07:16:12;-2.80;99.90
22112;DHT22;11222;50.872;4.312;2022-12-18T07:18:38;-2.90;99.90
22112;DHT22;11222;50.872;4.312;2022-12-18T07:21:05;-2.90;99.90
22112;DHT22;11222;50.872;4.312;2022-12-18T07:23:33;-2.90;99.90
22112;DHT22;11222;50.872;4.312;2022-12-18T07:26:07;-2.80;99.90
22112;DHT22;11222;50.872;4.312;2022-12-18T07:28:34;-2.80;99.90
22112;DHT22;11222;50.872;4.312;2022-12-18T07:31:14;-2.70;99.90
22112;DHT22;11222;50.872;4.312;2022-12-18T07:33:41;-2.70;99.90
22112;DHT22;11222;50.872;4.312;2022-12-18T07:36:08;-2.80;99.90
22112;DHT22;11222;50.872;4.312;2022-12-18T07:38:35;-2.80;99.90
22112;DHT22;11222;50.872;4.312;2022-12-18T07:41:06;-2.90;99.90
22112;DHT22;11222;50.872;4.312;2022-12-18T07:43:32;-2.90;99.90
22112;DHT22;11222;50.872;4.312;2022-12-18T07:45:58;-2.80;99.90
22112;DHT22;11222;50.872;4.312;2022-12-18T07:48:24;-2.80;99.90
22112;DHT22;11222;50.872;4.312;2022-12-18T07:50:50;-2.80;99.90
22112;DHT22;11222;50.872;4.312;2022-12-18T07:53:15;-2.90;99.90
22112;DHT22;11222;50.872;4.312;2022-12-18T07:55:42;-2.80;99.90
22112;DHT22;11222;50.872;4.312;2022-12-18T07:58:08;-2.90;99.90
22112;DHT22;11222;50.872;4.312;2022-12-18T08:00:34;-2.90;99.90
22112;DHT22;11222;50.872;4.312;2022-12-18T08:03:00;-2.90;99.90
22112;DHT22;11222;50.872;4.312;2022-12-18T08:05:27;-3.00;99.90
22112;DHT22;11222;50.872;4.312;2022-12-18T08:07:54;-3.00;99.90
22112;DHT22;11222;50.872;4.312;2022-12-18T08:10:20;-2.90;99.90
22112;DHT22;11222;50.872;4.312;2022-12-18T08:12:49;-2.80;99.90
22112;DHT22;11222;50.872;4.312;2022-12-18T08:15:15;-2.70;99.90
22112;DHT22;11222;50.872;4.312;2022-12-18T08:17:41;-2.70;99.90
22112;DHT22;11222;50.872;4.312;2022-12-18T08:20:07;-2.70;99.90
22112;DHT22;11222;50.872;4.312;2022-12-18T08:22:34;-2.70;99.90
22112;DHT22;11222;50.872;4.312;2022-12-18T08:25:03;-2.60;99.90
22112;DHT22;11222;50.872;4.312;2022-12-18T08:27:29;-2.40;99.90
22112;DHT22;11222;50.872;4.312;2022-12-18T08:29:55;-2.30;99.90
22112;DHT22;11222;50.872;4.312;2022-12-18T08:32:21;-2.10;99.90
22112;DHT22;11222;50.872;4.312;2022-12-18T08:34:46;-2.00;99.90
22112;DHT22;11222;50.872;4.312;2022-12-18T08:37:12;-1.80;99.90
22112;DHT22;11222;50.872;4.312;2022-12-18T08:39:37;-1.70;99.90
22112;DHT22;11222;50.872;4.312;2022-12-18T08:42:03;-1.60;99.90
22112;DHT22;11222;50.872;4.312;2022-12-18T08:44:47;-1.60;99.90
22112;DHT22;11222;50.872;4.312;2022-12-18T08:47:13;-1.50;99.90
22112;DHT22;11222;50.872;4.312;2022-12-18T08:49:39;-1.40;99.90
22112;DHT22;11222;50.872;4.312;2022-12-18T08:52:04;-1.30;99.90
22112;DHT22;11222;50.872;4.312;2022-12-18T08:54:30;-1.30;99.90
22112;DHT22;11222;50.872;4.312;2022-12-18T08:56:56;-1.30;99.90
22112;DHT22;11222;50.872;4.312;2022-12-18T08:59:22;-1.20;99.90
22112;DHT22;11222;50.872;4.312;2022-12-18T09:01:49;-1.20;99.90
22112;DHT22;11222;50.872;4.312;2022-12-18T09:04:15;-1.10;99.90
22112;DHT22;11222;50.872;4.312;2022-12-18T09:06:40;-1.00;99.90
22112;DHT22;11222;50.872;4.312;2022-12-18T09:09:06;-0.90;99.90
22112;DHT22;11222;50.872;4.312;2022-12-18T09:11:33;-0.80;99.90
22112;DHT22;11222;50.872;4.312;2022-12-18T09:14:00;-0.80;99.90
22112;DHT22;11222;50.872;4.312;2022-12-18T09:16:27;-0.80;99.90
22112;DHT22;11222;50.872;4.312;2022-12-18T09:18:55;-0.70;99.90
22112;DHT22;11222;50.872;4.312;2022-12-18T09:21:26;-0.60;99.90
22112;DHT22;11222;50.872;4.312;2022-12-18T09:23:54;-0.60;99.90
22112;DHT22;11222;50.872;4.312;2022-12-18T09:26:21;-0.50;99.90
22112;DHT22;11222;50.872;4.312;2022-12-18T09:28:47;-0.50;99.90
22112;DHT22;11222;50.872;4.312;2022-12-18T09:31:13;-0.40;99.90
22112;DHT22;11222;50.872;4.312;2022-12-18T09:33:39;-0.40;99.90
22112;DHT22;11222;50.872;4.312;2022-12-18T09:36:09;-0.40;99.90
22112;DHT22;11222;50.872;4.312;2022-12-18T09:38:35;-0.40;99.90
22112;DHT22;11222;50.872;4.312;2022-12-18T09:41:41;-0.40;99.90
22112;DHT22;11222;50.872;4.312;2022-12-18T09:44:50;-0.30;99.90
22112;DHT22;11222;50.872;4.312;2022-12-18T09:47:27;-0.30;99.90
22112;DHT22;11222;50.872;4.312;2022-12-18T09:50:13;-0.20;99.90
22112;DHT22;11222;50.872;4.312;2022-12-18T09:52:45;-0.20;99.90
22112;DHT22;11222;50.872;4.312;2022-12-18T09:55:26;-0.20;99.90
22112;DHT22;11222;50.872;4.312;2022-12-18T09:58:06;-0.20;99.90
22112;DHT22;11222;50.872;4.312;2022-12-18T10:00:33;-0.10;99.90
22112;DHT22;11222;50.872;4.312;2022-12-18T10:03:15;0.00;99.90
22112;DHT22;11222;50.872;4.312;2022-12-18T10:27:28;0.30;99.90
22112;DHT22;11222;50.872;4.312;2022-12-18T10:29:55;0.40;99.90
22112;DHT22;11222;50.872;4.312;2022-12-18T10:32:24;0.40;99.90
22112;DHT22;11222;50.872;4.312;2022-12-18T10:34:52;0.50;99.90
22112;DHT22;11222;50.872;4.312;2022-12-18T10:37:21;0.60;99.90
22112;DHT22;11222;50.872;4.312;2022-12-18T10:40:07;0.60;99.90
22112;DHT22;11222;50.872;4.312;2022-12-18T10:42:34;0.70;99.90
22112;DHT22;11222;50.872;4.312;2022-12-18T10:45:26;0.80;99.90
22112;DHT22;11222;50.872;4.312;2022-12-18T10:47:52;1.20;99.90
22112;DHT22;11222;50.872;4.312;2022-12-18T10:50:28;1.40;99.90
22112;DHT22;11222;50.872;4.312;2022-12-18T10:53:04;1.60;99.90
22112;DHT22;11222;50.872;4.312;2022-12-18T10:55:34;1.80;99.90
22112;DHT22;11222;50.872;4.312;2022-12-18T10:58:39;2.00;99.90
22112;DHT22;11222;50.872;4.312;2022-12-18T11:01:15;2.30;99.90
22112;DHT22;11222;50.872;4.312;2022-12-18T11:03:44;2.50;99.90
22112;DHT22;11222;50.872;4.312;2022-12-18T11:06:15;2.40;99.90
22112;DHT22;11222;50.872;4.312;2022-12-18T11:08:44;2.30;99.90
22112;DHT22;11222;50.872;4.312;2022-12-18T11:11:21;2.40;99.90
22112;DHT22;11222;50.872;4.312;2022-12-18T11:16:28;2.40;99.90
22112;DHT22;11222;50.872;4.312;2022-12-18T11:19:17;2.20;99.90
22112;DHT22;11222;50.872;4.312;2022-12-18T11:21:45;2.30;99.90
22112;DHT22;11222;50.872;4.312;2022-12-18T11:24:32;2.50;99.90
22112;DHT22;11222;50.872;4.312;2022-12-18T11:27:06;2.60;99.90
22112;DHT22;11222;50.872;4.312;2022-12-18T11:29:41;2.60;99.90
22112;DHT22;11222;50.872;4.312;2022-12-18T11:32:59;2.50;99.90
22112;DHT22;11222;50.872;4.312;2022-12-18T11:43:41;2.30;99.90
22112;DHT22;11222;50.872;4.312;2022-12-18T11:46:17;2.40;99.90
22112;DHT22;11222;50.872;4.312;2022-12-18T11:49:10;2.50;99.90
22112;DHT22;11222;50.872;4.312;2022-12-18T11:51:53;2.60;99.90
22112;DHT22;11222;50.872;4.312;2022-12-18T11:54:21;2.60;99.90
22112;DHT22;11222;50.872;4.312;2022-12-18T11:56:51;2.80;99.90
22112;DHT22;11222;50.872;4.312;2022-12-18T12:08:16;2.60;99.90
22112;DHT22;11222;50.872;4.312;2022-12-18T12:19:08;2.70;99.90
22112;DHT22;11222;50.872;4.312;2022-12-18T12:21:44;2.90;99.90
22112;DHT22;11222;50.872;4.312;2022-12-18T12:24:23;3.10;99.90
22112;DHT22;11222;50.872;4.312;2022-12-18T12:27:07;3.10;99.90
22112;DHT22;11222;50.872;4.312;2022-12-18T12:40:42;3.30;99.90
22112;DHT22;11222;50.872;4.312;2022-12-18T12:46:06;2.90;99.90
22112;DHT22;11222;50.872;4.312;2022-12-18T12:51:25;3.10;99.90
22112;DHT22;11222;50.872;4.312;2022-12-18T12:53:49;3.20;99.90
22112;DHT22;11222;50.872;4.312;2022-12-18T12:56:17;3.10;99.90
22112;DHT22;11222;50.872;4.312;2022-12-18T12:58:55;3.30;99.90
22112;DHT22;11222;50.872;4.312;2022-12-18T13:04:36;3.30;99.90
22112;DHT22;11222;50.872;4.312;2022-12-18T13:07:26;3.20;99.90
22112;DHT22;11222;50.872;4.312;2022-12-18T13:15:37;3.10;99.90
22112;DHT22;11222;50.872;4.312;2022-12-18T13:23:39;3.30;99.90
22112;DHT22;11222;50.872;4.312;2022-12-18T13:31:00;2.90;99.90
22112;DHT22;11222;50.872;4.312;2022-12-18T13:38:41;2.70;99.90
22112;DHT22;11222;50.872;4.312;2022-12-18T13:43:50;2.80;99.90
22112;DHT22;11222;50.872;4.312;2022-12-18T13:46:25;2.90;99.90
22112;DHT22;11222;50.872;4.312;2022-12-18T13:49:03;3.00;99.90
22112;DHT22;11222;50.872;4.312;2022-12-18T13:51:33;2.90;99.90
22112;DHT22;11222;50.872;4.312;2022-12-18T13:54:13;2.80;99.90
22112;DHT22;11222;50.872;4.312;2022-12-18T13:56:44;2.90;99.90
22112;DHT22;11222;50.872;4.312;2022-12-18T14:04:31;2.50;99.90
22112;DHT22;11222;50.872;4.312;2022-12-18T14:07:04;2.60;99.90
22112;DHT22;11222;50.872;4.312;2022-12-18T14:09:36;2.60;99.90
22112;DHT22;11222;50.872;4.312;2022-12-18T14:12:03;2.60;99.90
22112;DHT22;11222;50.872;4.312;2022-12-18T14:14:50;2.70;99.90
22112;DHT22;11222;50.872;4.312;2022-12-18T14:17:17;2.70;99.90
22112;DHT22;11222;50.872;4.312;2022-12-18T14:19:45;2.70;99.90
22112;DHT22;11222;50.872;4.312;2022-12-18T14:22:25;2.70;99.90
22112;DHT22;11222;50.872;4.312;2022-12-18T14:25:15;2.80;99.90
22112;DHT22;11222;50.872;4.312;2022-12-18T14:27:51;2.70;99.90
22112;DHT22;11222;50.872;4.312;2022-12-18T14:35:36;2.70;99.90
22112;DHT22;11222;50.872;4.312;2022-12-18T14:38:30;2.80;99.90
22112;DHT22;11222;50.872;4.312;2022-12-18T14:43:23;2.70;99.90
22112;DHT22;11222;50.872;4.312;2022-12-18T14:45:50;2.90;99.90
22112;DHT22;11222;50.872;4.312;2022-12-18T14:48:17;2.80;99.90
22112;DHT22;11222;50.872;4.312;2022-12-18T14:50:53;2.80;99.90
22112;DHT22;11222;50.872;4.312;2022-12-18T14:53:25;2.80;99.90
22112;DHT22;11222;50.872;4.312;2022-12-18T14:55:53;2.80;99.90
22112;DHT22;11222;50.872;4.312;2022-12-18T14:58:19;2.70;99.90
22112;DHT22;11222;50.872;4.312;2022-12-18T15:00:45;2.70;99.90
22112;DHT22;11222;50.872;4.312;2022-12-18T15:03:20;2.50;99.90
22112;DHT22;11222;50.872;4.312;2022-12-18T15:05:46;2.20;99.90
22112;DHT22;11222;50.872;4.312;2022-12-18T15:08:38;2.30;99.90
22112;DHT22;11222;50.872;4.312;2022-12-18T15:14:24;2.40;99.90
22112;DHT22;11222;50.872;4.312;2022-12-18T15:16:57;2.10;99.90
22112;DHT22;11222;50.872;4.312;2022-12-18T15:19:48;2.00;99.90
22112;DHT22;11222;50.872;4.312;2022-12-18T15:22:28;2.00;99.90
22112;DHT22;11222;50.872;4.312;2022-12-18T15:24:55;2.20;99.90
22112;DHT22;11222;50.872;4.312;2022-12-18T15:27:30;2.30;99.90
22112;DHT22;11222;50.872;4.312;2022-12-18T15:32:26;2.40;99.90
22112;DHT22;11222;50.872;4.312;2022-12-18T15:35:23;2.40;99.90
22112;DHT22;11222;50.872;4.312;2022-12-18T15:37:48;2.50;99.90
22112;DHT22;11222;50.872;4.312;2022-12-18T15:40:17;2.50;99.90
22112;DHT22;11222;50.872;4.312;2022-12-18T15:42:43;2.30;99.90
22112;DHT22;11222;50.872;4.312;2022-12-18T15:45:27;2.30;99.90
22112;DHT22;11222;50.872;4.312;2022-12-18T15:47:53;2.40;99.90
22112;DHT22;11222;50.872;4.312;2022-12-18T15:50:19;2.40;99.90
22112;DHT22;11222;50.872;4.312;2022-12-18T15:52:47;2.50;99.90
22112;DHT22;11222;50.872;4.312;2022-12-18T15:55:22;2.70;99.90
22112;DHT22;11222;50.872;4.312;2022-12-18T15:58:08;2.70;99.90
22112;DHT22;11222;50.872;4.312;2022-12-18T16:00:36;2.60;99.90
22112;DHT22;11222;50.872;4.312;2022-12-18T16:03:03;2.50;99.90
22112;DHT22;11222;50.872;4.312;2022-12-18T16:05:30;2.40;99.90
22112;DHT22;11222;50.872;4.312;2022-12-18T16:07:56;2.30;99.90
22112;DHT22;11222;50.872;4.312;2022-12-18T16:10:22;2.30;99.90
22112;DHT22;11222;50.872;4.312;2022-12-18T16:12:49;2.50;99.90
22112;DHT22;11222;50.872;4.312;2022-12-18T16:15:15;2.60;99.90
22112;DHT22;11222;50.872;4.312;2022-12-18T16:17:42;2.50;99.90
22112;DHT22;11222;50.872;4.312;2022-12-18T16:20:13;2.50;99.90
22112;DHT22;11222;50.872;4.312;2022-12-18T16:22:42;2.50;99.90
22112;DHT22;11222;50.872;4.312;2022-12-18T16:25:22;2.40;99.90
22112;DHT22;11222;50.872;4.312;2022-12-18T16:27:49;2.30;99.90
22112;DHT22;11222;50.872;4.312;2022-12-18T16:30:16;2.30;99.90
22112;DHT22;11222;50.872;4.312;2022-12-18T16:32:42;2.30;99.90
22112;DHT22;11222;50.872;4.312;2022-12-18T16:35:13;2.30;99.90
22112;DHT22;11222;50.872;4.312;2022-12-18T16:37:40;2.40;99.90
22112;DHT22;11222;50.872;4.312;2022-12-18T16:40:08;2.50;99.90
22112;DHT22;11222;50.872;4.312;2022-12-18T16:42:36;2.70;99.90
22112;DHT22;11222;50.872;4.312;2022-12-18T16:45:03;2.80;99.90
22112;DHT22;11222;50.872;4.312;2022-12-18T16:47:29;2.90;99.90
22112;DHT22;11222;50.872;4.312;2022-12-18T16:49:54;2.90;99.90
22112;DHT22;11222;50.872;4.312;2022-12-18T16:52:20;3.00;99.90
22112;DHT22;11222;50.872;4.312;2022-12-18T16:54:46;3.20;99.90
22112;DHT22;11222;50.872;4.312;2022-12-18T16:57:14;3.20;99.90
22112;DHT22;11222;50.872;4.312;2022-12-18T16:59:40;3.30;99.90
22112;DHT22;11222;50.872;4.312;2022-12-18T17:02:13;3.40;99.90
22112;DHT22;11222;50.872;4.312;2022-12-18T17:04:40;3.30;99.90
22112;DHT22;11222;50.872;4.312;2022-12-18T17:07:07;3.20;99.90
22112;DHT22;11222;50.872;4.312;2022-12-18T17:09:33;3.10;99.90
22112;DHT22;11222;50.872;4.312;2022-12-18T17:11:58;2.90;99.90
22112;DHT22;11222;50.872;4.312;2022-12-18T17:14:24;3.00;99.90
22112;DHT22;11222;50.872;4.312;2022-12-18T17:16:52;3.00;99.90
22112;DHT22;11222;50.872;4.312;2022-12-18T17:19:17;2.90;99.90
22112;DHT22;11222;50.872;4.312;2022-12-18T17:21:46;2.90;99.90
22112;DHT22;11222;50.872;4.312;2022-12-18T17:24:12;2.80;99.90
22112;DHT22;11222;50.872;4.312;2022-12-18T17:26:38;2.90;99.90
22112;DHT22;11222;50.872;4.312;2022-12-18T17:29:04;3.00;99.90
22112;DHT22;11222;50.872;4.312;2022-12-18T17:31:30;3.00;99.90
22112;DHT22;11222;50.872;4.312;2022-12-18T17:33:56;3.10;99.90
22112;DHT22;11222;50.872;4.312;2022-12-18T17:36:22;3.30;99.90
22112;DHT22;11222;50.872;4.312;2022-12-18T17:38:53;3.20;99.90
22112;DHT22;11222;50.872;4.312;2022-12-18T17:41:19;3.10;99.90
22112;DHT22;11222;50.872;4.312;2022-12-18T17:43:56;3.10;99.90
22112;DHT22;11222;50.872;4.312;2022-12-18T17:46:24;3.10;99.90
22112;DHT22;11222;50.872;4.312;2022-12-18T17:48:50;3.00;99.90
22112;DHT22;11222;50.872;4.312;2022-12-18T17:51:17;3.00;99.90
22112;DHT22;11222;50.872;4.312;2022-12-18T17:53:43;3.10;99.90
22112;DHT22;11222;50.872;4.312;2022-12-18T17:56:12;3.20;99.90
22112;DHT22;11222;50.872;4.312;2022-12-18T17:58:38;3.00;99.90
22112;DHT22;11222;50.872;4.312;2022-12-18T18:01:05;3.00;99.90
22112;DHT22;11222;50.872;4.312;2022-12-18T18:03:32;2.80;99.90
22112;DHT22;11222;50.872;4.312;2022-12-18T18:05:59;2.60;99.90
22112;DHT22;11222;50.872;4.312;2022-12-18T18:08:25;2.40;99.90
22112;DHT22;11222;50.872;4.312;2022-12-18T18:10:51;2.30;99.90
22112;DHT22;11222;50.872;4.312;2022-12-18T18:13:24;2.30;99.90
22112;DHT22;11222;50.872;4.312;2022-12-18T18:16:10;2.50;99.90